Time;durP1;ratioP1;P1;durP2;ratioP2;P2;SDS_P1;SDS_P2;PMS_P1;PMS_P2;Temp;Humidity;BMP_temperature;BMP_pressure;BME280_temperature;BME280_humidity;BME280_pressure;Samples;Min_cycle;Max_cycle;Signal;HPM_P1;HPM_P2
2021/11/13 00:00:36;;;;;;;;;33.00;25.25;;;;;12.14;68.85;101126.00;4934186;28;45686;-95
2021/11/13 00:03:01;;;;;;;;;27.25;24.00;;;;;12.16;69.18;101127.88;4953217;28;45247;-96
2021/11/13 00:05:27;;;;;;;;;28.25;24.00;;;;;12.18;68.43;101114.78;4954991;28;45317;-96
2021/11/13 00:07:52;;;;;;;;;27.00;21.00;;;;;12.23;68.67;101118.53;4941541;28;47015;-95
2021/11/13 00:10:19;;;;;;;;;25.67;22.33;;;;;12.24;68.82;101111.53;4942823;28;45327;-95
2021/11/13 00:12:45;;;;;;;;;27.67;22.67;;;;;12.21;68.71;101096.50;4943713;28;45417;-95
2021/11/13 00:15:11;;;;;;;;;31.67;23.67;;;;;12.26;68.47;101113.41;4973457;28;45715;-95
2021/11/13 00:17:36;;;;;;;;;28.00;22.33;;;;;12.30;68.53;101122.31;4950058;28;46926;-96
2021/11/13 00:20:03;;;;;;;;;26.67;20.00;;;;;12.20;68.59;101105.22;4944017;28;45517;-95
2021/11/13 00:22:29;;;;;;;;;28.00;24.00;;;;;12.27;68.83;101128.34;4944258;28;45490;-95
2021/11/13 00:24:54;;;;;;;;;23.00;21.67;;;;;12.17;68.44;101106.00;4934328;28;45420;-96
2021/11/13 00:27:20;;;;;;;;;34.67;27.67;;;;;12.17;68.72;101103.38;4939246;28;47365;-95
2021/11/13 00:29:45;;;;;;;;;28.00;25.33;;;;;12.17;68.62;101086.66;4920177;28;45707;-95
2021/11/13 00:32:11;;;;;;;;;26.00;25.33;;;;;12.25;68.34;101101.06;4925231;28;45569;-95
2021/11/13 00:34:36;;;;;;;;;30.00;24.25;;;;;12.17;68.22;101078.78;4941566;28;45587;-96
2021/11/13 00:37:02;;;;;;;;;24.00;22.00;;;;;12.28;68.48;101098.59;4937024;28;60700;-96
2021/11/13 00:39:27;;;;;;;;;29.67;19.00;;;;;12.28;68.47;101106.47;4924425;28;45400;-96
2021/11/13 00:41:52;;;;;;;;;24.67;21.00;;;;;12.26;68.63;101102.88;4926700;28;45437;-96
2021/11/13 00:44:18;;;;;;;;;19.33;18.00;;;;;12.24;68.44;101099.25;4928112;28;45278;-96
2021/11/13 00:46:43;;;;;;;;;19.00;17.00;;;;;12.25;68.55;101105.44;4928282;28;47452;-96
2021/11/13 00:49:09;;;;;;;;;17.00;13.00;;;;;12.29;68.19;101103.00;4928157;28;45487;-96
2021/11/13 00:51:34;;;;;;;;;17.00;14.33;;;;;12.32;68.57;101104.88;4929390;28;45513;-96
2021/11/13 00:54:00;;;;;;;;;19.00;14.33;;;;;12.27;68.70;101096.75;4929276;28;45365;-96
2021/11/13 00:56:25;;;;;;;;;15.33;13.00;;;;;12.32;67.96;101110.13;4944127;28;48288;-95
2021/11/13 00:58:51;;;;;;;;;17.00;13.00;;;;;12.22;68.20;101092.13;4927263;28;45512;-95
2021/11/13 01:01:17;;;;;;;;;16.67;13.67;;;;;12.28;68.01;101105.56;4941597;28;45427;-95
2021/11/13 01:03:42;;;;;;;;;15.00;11.67;;;;;12.20;68.15;101094.69;4918739;28;45511;-96
2021/11/13 01:06:08;;;;;;;;;13.00;12.00;;;;;12.28;68.15;101119.63;4926750;28;47841;-96
2021/11/13 01:08:34;;;;;;;;;16.33;14.67;;;;;12.26;68.13;101099.34;4944850;28;45977;-96
2021/11/13 01:10:59;;;;;;;;;18.33;15.00;;;;;12.26;68.02;101101.97;4954577;28;45507;-95
2021/11/13 01:13:24;;;;;;;;;13.67;13.67;;;;;12.32;68.34;101110.13;4949680;28;52237;-95
2021/11/13 01:15:50;;;;;;;;;14.33;12.67;;;;;12.23;68.11;101088.69;4943854;28;48478;-96
2021/11/13 01:18:15;;;;;;;;;17.33;12.00;;;;;12.31;68.26;101108.34;4927615;28;45516;-94
2021/11/13 01:20:41;;;;;;;;;18.00;15.33;;;;;12.35;68.46;101114.63;4927685;28;45314;-95
2021/11/13 01:23:06;;;;;;;;;16.33;12.67;;;;;12.27;68.56;101101.13;4928605;28;45252;-96
2021/11/13 01:25:31;;;;;;;;;18.33;15.67;;;;;12.27;68.50;101099.41;4933138;28;47071;-95
2021/11/13 01:27:57;;;;;;;;;12.67;11.00;;;;;12.30;68.31;101101.25;4923588;28;45926;-95
2021/11/13 01:30:22;;;;;;;;;14.67;12.67;;;;;12.34;68.80;101105.84;4909313;28;45498;-96
2021/11/13 01:32:48;;;;;;;;;16.67;12.00;;;;;12.24;69.11;101090.50;4962190;28;63329;-96
2021/11/13 01:35:13;;;;;;;;;19.67;15.00;;;;;12.33;69.19;101121.56;4927386;28;47130;-95
2021/11/13 01:37:39;;;;;;;;;15.67;13.00;;;;;12.18;69.13;101088.47;4941784;28;45249;-95
2021/11/13 01:40:06;;;;;;;;;13.33;11.67;;;;;12.25;69.63;101108.06;4942135;28;45313;-96
2021/11/13 01:42:31;;;;;;;;;18.00;12.67;;;;;12.20;69.56;101105.22;4932984;28;45365;-96
2021/11/13 01:44:57;;;;;;;;;13.67;11.33;;;;;12.24;69.86;101108.91;4925124;28;51497;-96
2021/11/13 01:47:22;;;;;;;;;12.00;11.00;;;;;12.17;70.08;101091.94;4940453;28;53121;-96
2021/11/13 01:49:47;;;;;;;;;15.33;12.33;;;;;12.16;69.85;101084.88;4927173;28;45518;-96
2021/11/13 01:52:13;;;;;;;;;13.67;12.00;;;;;12.20;70.22;101094.69;4929781;28;45412;-96
2021/11/13 01:54:40;;;;;;;;;12.67;11.67;;;;;12.07;69.93;101066.91;4939653;28;47947;-96
2021/11/13 01:57:11;;;;;;;;;14.00;12.33;;;;;12.17;69.81;101094.56;4930443;28;45751;-96
2021/11/13 01:59:37;;;;;;;;;9.67;9.67;;;;;12.10;69.73;101081.94;4945867;28;45541;-96
2021/11/13 02:02:02;;;;;;;;;16.00;11.67;;;;;12.07;69.64;101077.44;4946198;28;45362;-96
2021/11/13 02:04:28;;;;;;;;;11.67;9.67;;;;;12.16;70.00;101087.50;4935568;28;48189;-96
2021/11/13 02:06:53;;;;;;;;;16.33;12.33;;;;;12.19;69.73;101090.25;4953009;28;50608;-95
2021/11/13 02:09:19;;;;;;;;;15.67;13.00;;;;;12.17;69.93;101082.31;4923727;28;49537;-96
2021/11/13 02:11:44;;;;;;;;;11.67;9.00;;;;;12.13;70.11;101077.75;4907834;28;45484;-96
2021/11/13 02:14:10;;;;;;;;;16.33;12.00;;;;;12.18;70.07;101080.59;4926614;28;47952;-96
2021/11/13 02:16:35;;;;;;;;;12.33;10.33;;;;;12.19;69.91;101079.72;4926858;28;45254;-96
2021/11/13 02:19:01;;;;;;;;;14.00;11.33;;;;;12.19;69.65;101087.63;4934102;28;45628;-96
2021/11/13 02:21:27;;;;;;;;;11.33;9.67;;;;;12.07;69.77;101067.81;4924025;28;45308;-96
2021/11/13 02:23:52;;;;;;;;;11.67;9.33;;;;;12.16;69.68;101077.88;4924023;28;52156;-96
2021/11/13 02:26:18;;;;;;;;;9.67;9.00;;;;;12.10;69.69;101063.50;4937990;28;45340;-96
2021/11/13 02:28:43;;;;;;;;;10.33;9.00;;;;;12.20;69.77;101081.53;4927646;28;45502;-96
2021/11/13 02:31:10;;;;;;;;;12.67;10.33;;;;;12.22;69.31;101081.59;4951334;28;63327;-96
2021/11/13 02:33:36;;;;;;;;;12.33;12.00;;;;;12.24;69.34;101080.84;4929869;28;47443;-96
2021/11/13 02:36:04;;;;;;;;;11.00;9.33;;;;;12.19;69.35;101071.84;4940746;28;45424;-96
2021/11/13 02:38:36;;;;;;;;;15.33;11.00;;;;;12.19;69.29;101058.69;4942541;28;45384;-96
2021/11/13 02:41:03;;;;;;;;;12.67;9.67;;;;;12.32;69.32;101061.88;4942558;28;45626;-96
2021/11/13 02:43:30;;;;;;;;;6.00;5.00;;;;;12.26;68.92;101058.13;4948022;28;48497;-95
2021/11/13 02:45:58;;;;;;;;;11.67;9.67;;;;;12.33;69.01;101064.56;4937305;28;45971;-96
2021/11/13 02:48:24;;;;;;;;;12.00;8.67;;;;;12.33;69.01;101071.56;4944123;28;45365;-96
2021/11/13 02:50:50;;;;;;;;;16.67;11.00;;;;;12.36;68.77;101066.41;4942978;28;45374;-96
2021/11/13 02:53:20;;;;;;;;;15.00;12.00;;;;;12.42;69.24;101074.56;4926257;28;47230;-96
2021/11/13 02:55:49;;;;;;;;;14.00;12.00;;;;;12.35;68.79;101062.88;4926220;28;45383;-96
2021/11/13 02:58:14;;;;;;;;;11.00;10.00;;;;;12.39;68.89;101070.09;4926166;28;45262;-96
2021/11/13 03:00:40;;;;;;;;;15.67;12.33;;;;;12.36;68.63;101064.69;4926050;28;45501;-96
2021/11/13 03:03:05;;;;;;;;;10.00;8.67;;;;;12.39;69.08;101063.94;4928158;28;47937;-96
2021/11/13 03:05:35;;;;;;;;;11.67;8.67;;;;;12.48;68.48;101069.56;4929160;28;59396;-96
2021/11/13 03:08:02;;;;;;;;;8.33;6.67;;;;;12.49;68.81;101062.59;4940647;28;45264;-96
2021/11/13 03:10:32;;;;;;;;;9.00;8.00;;;;;12.44;68.53;101067.66;4933963;28;45550;-96
2021/11/13 03:12:58;;;;;;;;;10.00;8.00;;;;;12.49;68.55;101068.75;4919855;28;47176;-96
2021/11/13 03:15:23;;;;;;;;;6.33;6.33;;;;;12.46;68.60;101059.81;4926100;28;46381;-96
2021/11/13 03:17:49;;;;;;;;;9.00;8.33;;;;;12.42;68.30;101047.38;4929376;28;45707;-96
2021/11/13 03:20:23;;;;;;;;;12.33;9.33;;;;;12.50;68.51;101062.63;4929670;28;45488;-96
2021/11/13 03:22:49;;;;;;;;;11.33;9.00;;;;;12.50;68.47;101060.00;4930154;28;48259;-96
2021/11/13 03:25:16;;;;;;;;;11.00;8.00;;;;;12.47;68.55;101051.09;4936791;28;45620;-96
2021/11/13 03:27:49;;;;;;;;;8.67;8.67;;;;;12.46;68.41;101052.81;4938664;28;45478;-96
2021/11/13 03:30:14;;;;;;;;;17.33;10.33;;;;;12.40;68.29;101042.91;4926271;28;45432;-96
2021/11/13 03:32:40;;;;;;;;;10.00;6.00;;;;;12.44;68.41;101045.69;4941161;28;64604;-96
2021/11/13 03:35:06;;;;;;;;;11.33;7.67;;;;;12.48;68.43;101058.13;4941181;28;45439;-96
2021/11/13 03:37:32;;;;;;;;;9.00;6.00;;;;;12.43;68.54;101051.78;4935200;28;45476;-96
2021/11/13 03:39:57;;;;;;;;;5.33;5.33;;;;;12.35;68.45;101033.94;4927848;28;47360;-96
2021/11/13 03:42:24;;;;;;;;;10.00;8.00;;;;;12.49;68.55;101055.59;4926516;28;46992;-96
2021/11/13 03:44:50;;;;;;;;;6.00;4.67;;;;;12.45;68.80;101051.00;4926259;28;45857;-96
2021/11/13 03:47:16;;;;;;;;;8.33;5.67;;;;;12.37;68.50;101036.66;4929110;28;45463;-96
2021/11/13 03:49:41;;;;;;;;;6.33;5.33;;;;;12.47;68.46;101059.00;4945013;28;45439;-96
2021/11/13 03:52:07;;;;;;;;;8.00;8.00;;;;;12.33;68.33;101034.69;4932589;28;47382;-96
2021/11/13 03:54:33;;;;;;;;;5.33;5.00;;;;;12.38;68.64;101049.84;4926097;28;58297;-96
2021/11/13 03:56:59;;;;;;;;;8.67;6.67;;;;;12.39;68.76;101045.50;4911539;28;45455;-96
2021/11/13 03:59:26;;;;;;;;;10.67;7.33;;;;;12.39;69.05;101048.13;4928619;28;45786;-96
2021/11/13 04:01:51;;;;;;;;;4.33;4.00;;;;;12.37;69.10;101041.91;4913292;28;47263;-96
2021/11/13 04:04:16;;;;;;;;;4.33;4.33;;;;;12.32;69.14;101033.78;4926088;28;45702;-96
2021/11/13 04:06:42;;;;;;;;;8.33;4.67;;;;;12.37;68.79;101045.41;4913671;28;45005;-96
2021/11/13 04:09:07;;;;;;;;;10.67;6.33;;;;;12.27;68.92;101038.88;4927823;28;51186;-96
2021/11/13 04:11:33;;;;;;;;;9.00;4.00;;;;;12.38;69.17;101052.50;4928497;28;47060;-95
2021/11/13 04:13:58;;;;;;;;;6.67;6.33;;;;;12.44;69.09;101062.41;4919816;28;45773;-96
2021/11/13 04:16:23;;;;;;;;;6.00;5.00;;;;;12.35;69.03;101057.63;4950864;28;45284;-96
2021/11/13 04:18:51;;;;;;;;;9.33;6.33;;;;;12.41;69.41;101064.88;4933986;28;54157;-96
2021/11/13 04:21:16;;;;;;;;;3.00;3.00;;;;;12.37;69.20;101057.72;4958291;28;47726;-96
2021/11/13 04:23:43;;;;;;;;;5.67;5.00;;;;;12.48;69.06;101079.22;4925430;28;45556;-96
2021/11/13 04:26:08;;;;;;;;;4.00;4.00;;;;;12.43;68.60;101060.59;4939091;28;45623;-96
2021/11/13 04:28:34;;;;;;;;;3.00;3.00;;;;;12.48;69.05;101073.94;4920765;28;52960;-96
2021/11/13 04:30:59;;;;;;;;;7.00;3.00;;;;;12.52;68.79;101076.75;4917677;28;65106;-96
2021/11/13 04:33:26;;;;;;;;;5.33;3.00;;;;;12.45;68.92;101060.63;4960126;28;49327;-96
2021/11/13 04:38:52;;;;;;;;;4.00;4.00;;;;;12.55;68.88;101065.47;4868411;29;45274;-96
2021/11/13 04:41:17;;;;;;;;;3.00;3.00;;;;;12.57;68.61;101069.09;4863553;29;46928;-96
2021/11/13 04:43:43;;;;;;;;;4.00;3.00;;;;;12.50;68.58;101065.28;4859685;29;53870;-96
2021/11/13 04:46:08;;;;;;;;;6.33;6.00;;;;;12.48;69.07;101068.66;4858206;29;45556;-96
2021/11/13 04:48:34;;;;;;;;;3.67;3.67;;;;;12.49;68.97;101062.59;4884348;29;48862;-96
2021/11/13 04:51:01;;;;;;;;;5.33;3.00;;;;;12.38;69.40;101051.59;4897851;28;62337;-95
2021/11/13 04:53:26;;;;;;;;;4.00;3.00;;;;;12.40;69.25;101057.81;4866707;29;45991;-96
2021/11/13 04:55:52;;;;;;;;;6.67;5.00;;;;;12.41;69.33;101059.63;4875394;29;45525;-96
2021/11/13 04:58:17;;;;;;;;;5.33;2.67;;;;;12.28;69.43;101055.56;4859270;29;47140;-96
2021/11/13 05:00:43;;;;;;;;;4.33;3.00;;;;;12.34;69.77;101074.25;4844355;29;47488;-96
2021/11/13 05:03:08;;;;;;;;;3.00;2.67;;;;;12.33;69.46;101077.72;4866037;29;67573;-96
2021/11/13 05:05:33;;;;;;;;;5.00;4.00;;;;;12.34;69.71;101076.00;4867316;29;45462;-96
2021/11/13 05:07:59;;;;;;;;;5.67;4.00;;;;;12.32;70.01;101081.16;4867095;29;49403;-96
2021/11/13 05:10:24;;;;;;;;;5.00;4.00;;;;;12.43;69.79;101092.19;4850511;29;57060;-96
2021/11/13 05:12:50;;;;;;;;;6.33;4.00;;;;;12.38;69.71;101073.56;4905589;28;45738;-96
2021/11/13 05:15:15;;;;;;;;;3.00;3.00;;;;;12.35;69.86;101067.25;4924741;28;45488;-96
2021/11/13 05:17:41;;;;;;;;;3.00;3.00;;;;;12.33;69.96;101067.19;4924749;28;45506;-96
2021/11/13 05:20:08;;;;;;;;;7.00;4.00;;;;;12.35;69.81;101072.50;4942447;28;47318;-96
2021/11/13 05:22:35;;;;;;;;;6.00;3.33;;;;;12.38;69.85;101070.00;4940868;28;45759;-96
2021/11/13 05:25:01;;;;;;;;;8.67;4.67;;;;;12.34;70.00;101060.19;4918519;28;45273;-96
2021/11/13 05:27:26;;;;;;;;;2.33;2.33;;;;;12.40;69.53;101069.25;4927817;28;45543;-96
2021/11/13 05:29:52;;;;;;;;;3.67;3.00;;;;;12.43;69.64;101072.84;4927156;28;47558;-96
2021/11/13 05:32:17;;;;;;;;;4.33;4.33;;;;;12.43;69.78;101070.22;4908261;28;58254;-96
2021/11/13 05:34:43;;;;;;;;;5.33;3.00;;;;;12.46;69.83;101081.78;4920056;28;45373;-96
2021/11/13 05:37:08;;;;;;;;;4.00;4.00;;;;;12.47;69.90;101074.78;4927607;28;50549;-96
2021/11/13 05:39:36;;;;;;;;;4.00;4.00;;;;;12.43;69.57;101064.94;4927270;28;49327;-96
2021/11/13 05:42:02;;;;;;;;;7.00;4.00;;;;;12.44;69.39;101067.66;4943225;28;46265;-96
2021/11/13 05:44:28;;;;;;;;;9.33;4.00;;;;;12.47;69.30;101070.41;4960937;28;45518;-96
2021/11/13 05:46:54;;;;;;;;;3.00;3.00;;;;;12.42;69.70;101060.53;4929727;28;60866;-96
2021/11/13 05:49:20;;;;;;;;;9.00;3.33;;;;;12.42;69.54;101071.94;4924333;28;48641;-96
2021/11/13 05:51:45;;;;;;;;;7.33;3.67;;;;;12.38;69.38;101070.00;4929138;28;45947;-96
2021/11/13 05:54:11;;;;;;;;;6.00;4.00;;;;;12.46;69.68;101084.41;4927147;28;49916;-96
2021/11/13 05:56:36;;;;;;;;;4.00;2.33;;;;;12.42;69.42;101077.19;4942061;28;54086;-96
2021/11/13 05:59:02;;;;;;;;;5.00;3.67;;;;;12.50;69.57;101088.97;4926422;28;67094;-96
2021/11/13 06:01:27;;;;;;;;;4.33;3.00;;;;;12.39;69.53;101074.47;4943429;28;45858;-96
2021/11/13 06:03:52;;;;;;;;;2.33;2.33;;;;;12.51;69.40;101088.16;4927522;28;45512;-96
2021/11/13 06:06:18;;;;;;;;;4.33;4.33;;;;;12.39;69.43;101066.56;4928371;28;45478;-96
2021/11/13 06:08:43;;;;;;;;;3.33;3.33;;;;;12.43;69.41;101079.00;4965559;28;59341;-96
2021/11/13 06:11:09;;;;;;;;;3.00;3.00;;;;;12.50;69.27;101085.44;4946525;28;52638;-96
2021/11/13 06:13:35;;;;;;;;;3.00;3.00;;;;;12.54;69.42;101100.53;4919320;28;45274;-96
2021/11/13 06:16:02;;;;;;;;;4.33;3.33;;;;;12.49;69.38;101097.72;4927069;28;45347;-96
2021/11/13 06:18:28;;;;;;;;;2.00;1.00;;;;;12.39;69.68;101071.81;4914534;28;48158;-96
2021/11/13 06:20:53;;;;;;;;;2.67;2.00;;;;;12.51;69.54;101095.13;4948949;28;45323;-96
2021/11/13 06:23:19;;;;;;;;;3.67;3.00;;;;;12.46;70.01;101089.69;4930304;28;49281;-96
2021/11/13 06:25:44;;;;;;;;;3.67;2.00;;;;;12.49;69.89;101099.44;4941347;28;48210;-96
2021/11/13 06:28:09;;;;;;;;;3.00;1.00;;;;;12.38;70.23;101091.97;4937632;28;60178;-96
2021/11/13 06:30:35;;;;;;;;;2.33;2.33;;;;;12.40;69.85;101105.19;4933876;28;46409;-96
2021/11/13 06:33:00;;;;;;;;;1.00;1.00;;;;;12.36;70.62;101105.91;4962678;28;45340;-95
2021/11/13 06:35:26;;;;;;;;;0.33;0.00;;;;;12.35;70.85;101101.47;4930424;28;45268;-96
2021/11/13 06:37:51;;;;;;;;;1.00;1.00;;;;;12.29;70.78;101107.38;4942240;28;47401;-96
2021/11/13 06:40:18;;;;;;;;;2.67;2.67;;;;;12.22;70.65;101103.56;4952323;28;52928;-96
2021/11/13 06:42:43;;;;;;;;;2.33;1.00;;;;;12.24;71.37;101117.69;4930072;28;45401;-96
2021/11/13 06:45:10;;;;;;;;;2.33;2.00;;;;;12.25;71.08;101118.59;4945165;28;45656;-96
2021/11/13 06:47:36;;;;;;;;;3.00;1.00;;;;;12.22;71.25;101118.44;4949591;28;47262;-96
2021/11/13 06:50:02;;;;;;;;;4.00;2.33;;;;;12.23;71.42;101121.16;4931130;28;45486;-96
2021/11/13 06:52:28;;;;;;;;;1.67;1.67;;;;;12.18;71.67;101113.06;4939425;28;45416;-96
2021/11/13 06:54:53;;;;;;;;;1.67;1.67;;;;;12.22;71.96;101121.06;4944851;28;45591;-96
2021/11/13 06:57:19;;;;;;;;;1.67;1.00;;;;;12.24;71.90;101119.44;4984068;28;48146;-96
2021/11/13 06:59:44;;;;;;;;;4.00;1.00;;;;;12.23;71.89;101131.69;4950355;28;45934;-96
2021/11/13 07:02:10;;;;;;;;;2.33;2.00;;;;;12.23;72.12;101129.06;4912654;28;45794;-96
2021/11/13 07:04:35;;;;;;;;;2.00;2.00;;;;;12.15;72.01;101119.91;4922000;28;45354;-96
2021/11/13 07:07:01;;;;;;;;;3.00;2.00;;;;;12.13;71.54;101127.75;4920207;28;46938;-96
2021/11/13 07:09:26;;;;;;;;;1.00;1.00;;;;;12.12;72.32;101128.53;4914233;28;45477;-96
2021/11/13 07:11:52;;;;;;;;;3.00;2.00;;;;;12.09;72.09;101128.38;4948739;28;45340;-96
2021/11/13 07:14:17;;;;;;;;;3.00;1.33;;;;;12.17;72.23;101141.94;4944076;28;45249;-96
2021/11/13 07:16:43;;;;;;;;;2.67;2.00;;;;;12.19;72.20;101145.53;4938543;28;48151;-96
2021/11/13 07:19:09;;;;;;;;;2.00;1.00;;;;;12.17;72.17;101149.81;4953420;28;45535;-96
2021/11/13 07:21:35;;;;;;;;;1.00;1.00;;;;;12.24;72.29;101166.81;4958374;28;45505;-94
2021/11/13 07:24:00;;;;;;;;;1.33;1.33;;;;;12.24;72.73;101170.31;4925934;28;45527;-85
2021/11/13 07:26:25;;;;;;;;;0.00;0.00;;;;;12.28;72.68;101182.81;4943408;28;45956;-84
2021/11/13 07:28:52;;;;;;;;;2.00;0.00;;;;;12.29;72.52;101181.09;4956155;28;71645;-84
2021/11/13 07:31:18;;;;;;;;;1.00;1.00;;;;;12.30;72.52;101182.88;4980351;28;45475;-85
2021/11/13 07:33:49;;;;;;;;;1.00;1.00;;;;;12.34;72.62;101181.28;4981088;28;45573;-84
2021/11/13 07:36:14;;;;;;;;;0.00;0.00;;;;;12.36;72.69;101192.78;4971697;28;46263;-85
2021/11/13 07:38:40;;;;;;;;;0.00;0.00;;;;;12.35;73.06;101197.13;4957867;28;70662;-85
2021/11/13 07:41:06;;;;;;;;;1.00;1.00;;;;;12.35;73.05;101202.41;4973661;28;65482;-86
2021/11/13 07:43:31;;;;;;;;;2.00;1.33;;;;;12.28;73.07;101188.06;4957307;28;45410;-90
2021/11/13 07:45:57;;;;;;;;;1.00;1.00;;;;;12.31;73.03;101186.41;4945020;28;46175;-85
2021/11/13 07:48:23;;;;;;;;;3.00;1.00;;;;;12.30;73.61;101201.28;4962592;28;45903;-86
2021/11/13 07:50:48;;;;;;;;;1.00;1.00;;;;;12.29;73.62;101203.00;4961444;28;45774;-87
2021/11/13 07:53:13;;;;;;;;;2.67;1.67;;;;;12.33;73.74;101198.81;4959415;28;45631;-89
2021/11/13 07:55:39;;;;;;;;;1.00;1.00;;;;;12.36;73.23;101200.69;4924369;28;75611;-89
2021/11/13 07:58:05;;;;;;;;;2.00;1.00;;;;;12.38;73.45;101199.00;4947445;28;45335;-87
2021/11/13 08:00:30;;;;;;;;;1.00;1.00;;;;;12.44;73.45;101198.41;4941008;28;45718;-87
2021/11/13 08:02:56;;;;;;;;;1.33;1.33;;;;;12.50;73.25;101202.19;4941904;28;45474;-87
2021/11/13 08:05:21;;;;;;;;;1.00;1.00;;;;;12.53;73.20;101196.16;4979690;28;57580;-87
2021/11/13 08:07:47;;;;;;;;;2.67;2.67;;;;;12.55;73.06;101199.75;4967883;28;45535;-86
2021/11/13 08:10:13;;;;;;;;;1.00;1.00;;;;;12.67;73.04;101224.84;4947482;28;45432;-86
2021/11/13 08:12:39;;;;;;;;;1.00;1.00;;;;;12.68;73.13;101209.09;4948764;28;46790;-86
2021/11/13 08:15:05;;;;;;;;;2.00;1.67;;;;;12.73;73.13;101215.47;4918228;28;46038;-86
2021/11/13 08:17:30;;;;;;;;;4.00;1.33;;;;;12.74;73.04;101206.75;4950477;28;45763;-86
2021/11/13 08:19:55;;;;;;;;;2.00;1.00;;;;;12.81;73.05;101202.63;4961441;28;58687;-86
2021/11/13 08:22:21;;;;;;;;;3.33;2.00;;;;;12.87;72.75;101207.28;4947578;28;64136;-87
2021/11/13 08:24:47;;;;;;;;;3.00;1.00;;;;;12.91;72.71;101208.34;4934089;28;45765;-86
2021/11/13 08:27:12;;;;;;;;;2.00;2.00;;;;;12.98;72.51;101206.84;4949550;28;45371;-86
2021/11/13 08:29:38;;;;;;;;;1.67;1.67;;;;;13.02;72.52;101216.66;4952156;28;45570;-86
2021/11/13 08:32:04;;;;;;;;;1.33;1.33;;;;;13.09;72.30;101221.38;4953554;28;45917;-86
2021/11/13 08:34:30;;;;;;;;;4.00;2.33;;;;;13.13;72.32;101215.41;4960192;28;45575;-86
2021/11/13 08:36:55;;;;;;;;;1.00;1.00;;;;;13.19;72.09;101220.06;4933560;28;67132;-86
2021/11/13 08:39:22;;;;;;;;;3.33;3.33;;;;;13.19;71.80;101223.56;4947067;28;60383;-85
2021/11/13 08:41:47;;;;;;;;;1.33;1.33;;;;;13.18;71.85;101223.50;4972955;28;45369;-86
2021/11/13 08:44:13;;;;;;;;;1.33;1.33;;;;;13.22;71.79;101227.19;4941876;28;71114;-85
2021/11/13 08:46:38;;;;;;;;;2.33;2.00;;;;;13.28;72.23;101232.69;4962010;28;45837;-86
2021/11/13 08:49:05;;;;;;;;;3.00;3.00;;;;;13.32;72.02;101234.66;4963674;28;45339;-86
2021/11/13 08:51:30;;;;;;;;;2.67;2.00;;;;;13.34;71.84;101229.44;4946497;28;45378;-85
2021/11/13 08:53:55;;;;;;;;;3.33;3.33;;;;;13.40;71.53;101234.97;4945896;28;46479;-85
2021/11/13 08:56:22;;;;;;;;;4.00;2.00;;;;;13.41;71.78;101234.13;4933551;28;45438;-86
2021/11/13 08:58:48;;;;;;;;;3.00;3.00;;;;;13.41;71.72;101229.75;4949966;28;45560;-84
2021/11/13 09:01:13;;;;;;;;;2.00;0.67;;;;;13.50;71.59;101234.47;4938029;28;45474;-84
2021/11/13 09:03:40;;;;;;;;;2.00;2.00;;;;;13.57;71.09;101233.06;4935264;28;45767;-84
2021/11/13 09:06:09;;;;;;;;;3.00;3.00;;;;;13.57;71.11;101230.41;4964758;28;45429;-83
2021/11/13 09:08:36;;;;;;;;;1.33;1.33;;;;;13.60;70.84;101233.19;4972242;28;45413;-85
2021/11/13 09:11:01;;;;;;;;;2.33;2.00;;;;;13.58;70.94;101226.03;4954516;28;45541;-84
2021/11/13 09:13:27;;;;;;;;;1.67;1.67;;;;;13.56;70.46;101231.22;4949939;28;46129;-84
2021/11/13 09:15:53;;;;;;;;;1.67;1.33;;;;;13.53;70.77;101233.72;4959442;28;52037;-84
2021/11/13 09:18:18;;;;;;;;;3.00;1.33;;;;;13.51;71.13;101227.47;4953543;28;45490;-85
2021/11/13 09:20:44;;;;;;;;;1.33;1.33;;;;;13.51;71.19;101238.03;4955705;28;45493;-85
2021/11/13 09:23:11;;;;;;;;;2.67;2.67;;;;;13.48;71.12;101227.34;4954903;28;45428;-86
2021/11/13 09:25:36;;;;;;;;;3.00;1.33;;;;;13.44;71.02;101239.53;4970287;28;45458;-85
2021/11/13 09:28:02;;;;;;;;;2.00;2.00;;;;;13.48;71.10;101238.81;4956122;28;45454;-86
2021/11/13 09:30:29;;;;;;;;;3.00;3.00;;;;;13.53;71.27;101236.34;4978378;28;45512;-85
2021/11/13 09:32:54;;;;;;;;;2.00;2.00;;;;;13.58;71.20;101228.69;4962572;28;45541;-86
2021/11/13 09:35:20;;;;;;;;;1.00;1.00;;;;;13.61;71.19;101234.97;4980450;28;45337;-85
2021/11/13 09:37:46;;;;;;;;;3.00;2.00;;;;;13.72;71.04;101237.13;4963208;28;45442;-85
2021/11/13 09:40:12;;;;;;;;;3.00;3.00;;;;;13.80;71.06;101233.06;4977594;28;45484;-85
2021/11/13 09:42:38;;;;;;;;;4.00;2.33;;;;;13.87;71.15;101233.31;4978973;28;46779;-85
2021/11/13 09:45:05;;;;;;;;;5.33;4.67;;;;;13.89;70.56;101250.13;4976271;28;45386;-86
2021/11/13 09:47:30;;;;;;;;;4.00;3.00;;;;;13.88;70.49;101236.03;4958733;28;45403;-85
2021/11/13 09:49:55;;;;;;;;;6.00;4.00;;;;;13.90;70.59;101238.72;4955185;28;46541;-85
2021/11/13 09:52:21;;;;;;;;;6.00;4.33;;;;;13.96;70.79;101234.59;4952599;28;76013;-85
2021/11/13 09:54:46;;;;;;;;;5.00;5.00;;;;;14.02;70.89;101240.94;4963447;28;72290;-84
2021/11/13 09:57:12;;;;;;;;;7.00;7.00;;;;;14.05;70.48;101244.59;4962681;28;67217;-85
2021/11/13 09:59:37;;;;;;;;;4.67;4.67;;;;;14.12;70.67;101252.75;4939383;28;45495;-85
2021/11/13 10:02:03;;;;;;;;;7.00;5.67;;;;;14.16;70.63;101257.31;4972788;28;45343;-85
2021/11/13 10:04:28;;;;;;;;;5.00;5.00;;;;;14.25;70.72;101262.06;4974316;28;48296;-84
2021/11/13 10:06:54;;;;;;;;;9.00;7.67;;;;;14.27;70.27;101269.19;4969782;28;47595;-84
2021/11/13 10:09:19;;;;;;;;;9.33;6.33;;;;;14.29;70.14;101258.69;4953883;28;69185;-84
2021/11/13 10:11:48;;;;;;;;;12.67;10.67;;;;;14.35;70.13;101264.22;4985552;28;46132;-84
2021/11/13 10:14:13;;;;;;;;;12.00;8.67;;;;;14.36;70.09;101266.00;4972494;28;45445;-84
2021/11/13 10:16:46;;;;;;;;;8.00;7.00;;;;;14.33;69.66;101265.88;4974281;28;45363;-84
2021/11/13 10:19:13;;;;;;;;;5.33;5.33;;;;;14.30;69.61;101257.84;4953455;28;45720;-84
2021/11/13 10:21:39;;;;;;;;;6.00;6.00;;;;;14.29;69.78;101259.59;4950983;28;46520;-85
2021/11/13 10:24:14;;;;;;;;;8.67;7.00;;;;;14.34;69.67;101258.84;4942208;28;46253;-84
2021/11/13 10:26:44;;;;;;;;;7.00;6.00;;;;;14.29;69.66;101253.41;4959802;28;45570;-84
2021/11/13 10:29:15;;;;;;;;;5.67;5.67;;;;;14.33;69.24;101257.94;4968410;28;45742;-84
2021/11/13 10:31:50;;;;;;;;;10.00;6.00;;;;;14.39;68.88;101262.56;4945747;28;46221;-84
2021/11/13 10:34:26;;;;;;;;;8.00;8.00;;;;;14.36;69.13;101250.16;4948160;28;45456;-84
2021/11/13 10:36:59;;;;;;;;;9.67;7.00;;;;;14.39;69.12;101252.00;4968159;28;45639;-84
2021/11/13 10:39:26;;;;;;;;;11.00;10.00;;;;;14.39;69.58;101254.66;4935055;28;45422;-84
2021/11/13 10:41:54;;;;;;;;;15.00;10.33;;;;;14.45;69.38;101259.28;4967300;28;45357;-84
2021/11/13 10:44:25;;;;;;;;;9.67;9.67;;;;;14.43;69.53;101253.91;4981360;28;45557;-84
2021/11/13 10:46:50;;;;;;;;;11.33;10.00;;;;;14.46;68.77;101263.69;4973942;28;45606;-85
2021/11/13 10:49:16;;;;;;;;;6.00;6.00;;;;;14.52;69.58;101250.72;4952498;28;45521;-85
2021/11/13 10:51:55;;;;;;;;;8.67;8.67;;;;;14.56;69.37;101257.03;4965902;28;45394;-84
2021/11/13 10:54:21;;;;;;;;;6.00;6.00;;;;;14.61;68.93;101253.69;4957351;28;45286;-84
2021/11/13 10:56:52;;;;;;;;;10.33;8.33;;;;;14.69;69.10;101250.47;4943209;28;45445;-85
2021/11/13 10:59:22;;;;;;;;;9.67;9.00;;;;;14.70;69.13;101247.88;4949290;28;47829;-85
2021/11/13 11:01:48;;;;;;;;;7.67;6.67;;;;;14.74;69.05;101236.56;4953550;28;46561;-86
2021/11/13 11:04:21;;;;;;;;;8.33;8.00;;;;;14.77;68.77;101235.75;4953455;28;45529;-86
2021/11/13 11:06:52;;;;;;;;;9.00;7.33;;;;;14.81;68.63;101239.44;4921314;28;45612;-85
2021/11/13 11:09:28;;;;;;;;;8.00;7.00;;;;;14.88;69.46;101237.94;4979915;28;45377;-85
2021/11/13 11:12:10;;;;;;;;;7.33;4.33;;;;;14.94;68.75;101236.41;4955257;28;46678;-86
2021/11/13 11:14:37;;;;;;;;;5.00;5.00;;;;;14.96;68.75;101245.28;4972655;28;45586;-86
2021/11/13 11:17:05;;;;;;;;;7.00;7.00;;;;;15.05;68.80;101243.84;4918207;28;45361;-84
2021/11/13 11:19:31;;;;;;;;;8.00;8.00;;;;;15.12;68.29;101242.28;4946433;28;45438;-88